sensor_id;sensor_type;location;lat;lon;timestamp;P1;durP1;ratioP1;P2;durP2;ratioP2
14330;SDS011;7249;49.376;11.080;2024-01-11T05:01:45;9.80;;;4.87;;
14330;SDS011;7249;49.376;11.080;2024-01-11T05:04:11;7.90;;;3.60;;
14330;SDS011;7249;49.376;11.080;2024-01-11T05:06:37;6.63;;;3.57;;
14330;SDS011;7249;49.376;11.080;2024-01-11T05:09:02;11.40;;;6.43;;
14330;SDS011;7249;49.376;11.080;2024-01-11T05:11:29;8.80;;;5.17;;
14330;SDS011;7249;49.376;11.080;2024-01-11T05:13:55;7.90;;;4.20;;
14330;SDS011;7249;49.376;11.080;2024-01-11T05:18:47;7.20;;;4.30;;
14330;SDS011;7249;49.376;11.080;2024-01-11T05:21:13;6.80;;;4.80;;
14330;SDS011;7249;49.376;11.080;2024-01-11T05:23:42;5.40;;;4.30;;
14330;SDS011;7249;49.376;11.080;2024-01-11T05:26:08;6.97;;;3.80;;
14330;SDS011;7249;49.376;11.080;2024-01-11T05:28:34;9.87;;;4.83;;
14330;SDS011;7249;49.376;11.080;2024-01-11T05:31:00;7.73;;;4.57;;
14330;SDS011;7249;49.376;11.080;2024-01-11T05:33:25;9.33;;;4.23;;
14330;SDS011;7249;49.376;11.080;2024-01-11T05:35:51;9.00;;;5.10;;
14330;SDS011;7249;49.376;11.080;2024-01-11T05:38:18;15.83;;;4.70;;
14330;SDS011;7249;49.376;11.080;2024-01-11T05:40:44;5.57;;;3.67;;
14330;SDS011;7249;49.376;11.080;2024-01-11T05:43:10;7.83;;;4.13;;
14330;SDS011;7249;49.376;11.080;2024-01-11T05:45:36;10.67;;;5.13;;
14330;SDS011;7249;49.376;11.080;2024-01-11T05:48:01;5.37;;;3.57;;
14330;SDS011;7249;49.376;11.080;2024-01-11T05:50:27;9.73;;;5.43;;
14330;SDS011;7249;49.376;11.080;2024-01-11T05:52:52;10.17;;;4.70;;
14330;SDS011;7249;49.376;11.080;2024-01-11T05:55:21;4.80;;;3.17;;
14330;SDS011;7249;49.376;11.080;2024-01-11T05:57:47;7.43;;;4.37;;
14330;SDS011;7249;49.376;11.080;2024-01-11T06:00:13;7.07;;;4.17;;
14330;SDS011;7249;49.376;11.080;2024-01-11T06:02:39;11.63;;;5.23;;
14330;SDS011;7249;49.376;11.080;2024-01-11T06:05:07;12.50;;;5.03;;
14330;SDS011;7249;49.376;11.080;2024-01-11T06:07:34;9.57;;;5.77;;
14330;SDS011;7249;49.376;11.080;2024-01-11T06:09:59;11.53;;;5.27;;
14330;SDS011;7249;49.376;11.080;2024-01-11T06:12:27;10.00;;;3.93;;
14330;SDS011;7249;49.376;11.080;2024-01-11T06:14:53;14.60;;;5.40;;
14330;SDS011;7249;49.376;11.080;2024-01-11T06:17:19;7.43;;;4.77;;
14330;SDS011;7249;49.376;11.080;2024-01-11T06:19:44;6.33;;;3.70;;
14330;SDS011;7249;49.376;11.080;2024-01-11T06:22:10;6.73;;;4.83;;
14330;SDS011;7249;49.376;11.080;2024-01-11T06:24:35;11.63;;;4.50;;
14330;SDS011;7249;49.376;11.080;2024-01-11T06:27:01;10.03;;;5.30;;
14330;SDS011;7249;49.376;11.080;2024-01-11T06:29:27;10.53;;;3.93;;
14330;SDS011;7249;49.376;11.080;2024-01-11T06:31:53;10.00;;;4.30;;
14330;SDS011;7249;49.376;11.080;2024-01-11T06:34:19;7.53;;;5.07;;
14330;SDS011;7249;49.376;11.080;2024-01-11T06:36:44;5.67;;;4.17;;
14330;SDS011;7249;49.376;11.080;2024-01-11T06:39:10;7.07;;;3.80;;
14330;SDS011;7249;49.376;11.080;2024-01-11T06:41:37;8.70;;;4.37;;
14330;SDS011;7249;49.376;11.080;2024-01-11T06:44:03;11.77;;;5.13;;
14330;SDS011;7249;49.376;11.080;2024-01-11T06:46:29;11.90;;;5.00;;
14330;SDS011;7249;49.376;11.080;2024-01-11T06:48:55;8.53;;;4.33;;
14330;SDS011;7249;49.376;11.080;2024-01-11T06:51:21;10.80;;;4.90;;
14330;SDS011;7249;49.376;11.080;2024-01-11T06:53:48;10.47;;;4.77;;
14330;SDS011;7249;49.376;11.080;2024-01-11T06:56:18;5.87;;;3.70;;
14330;SDS011;7249;49.376;11.080;2024-01-11T06:58:45;8.70;;;5.03;;
14330;SDS011;7249;49.376;11.080;2024-01-11T07:01:11;9.73;;;5.17;;
14330;SDS011;7249;49.376;11.080;2024-01-11T07:03:37;10.03;;;3.50;;
14330;SDS011;7249;49.376;11.080;2024-01-11T07:06:03;7.60;;;4.13;;
14330;SDS011;7249;49.376;11.080;2024-01-11T07:08:29;7.53;;;3.67;;
14330;SDS011;7249;49.376;11.080;2024-01-11T07:10:55;9.33;;;4.97;;
14330;SDS011;7249;49.376;11.080;2024-01-11T07:13:22;8.10;;;3.93;;
14330;SDS011;7249;49.376;11.080;2024-01-11T07:15:47;5.83;;;3.40;;
14330;SDS011;7249;49.376;11.080;2024-01-11T07:18:13;7.20;;;5.00;;
14330;SDS011;7249;49.376;11.080;2024-01-11T07:20:40;8.40;;;5.37;;
14330;SDS011;7249;49.376;11.080;2024-01-11T07:23:05;6.70;;;4.53;;
14330;SDS011;7249;49.376;11.080;2024-01-11T07:25:32;7.73;;;4.23;;
14330;SDS011;7249;49.376;11.080;2024-01-11T07:27:59;10.43;;;5.90;;
14330;SDS011;7249;49.376;11.080;2024-01-11T07:30:25;6.57;;;4.43;;
14330;SDS011;7249;49.376;11.080;2024-01-11T07:32:51;3.83;;;3.47;;
14330;SDS011;7249;49.376;11.080;2024-01-11T07:35:16;9.00;;;3.93;;
14330;SDS011;7249;49.376;11.080;2024-01-11T07:37:42;5.43;;;4.03;;
14330;SDS011;7249;49.376;11.080;2024-01-11T07:40:08;7.83;;;4.40;;
14330;SDS011;7249;49.376;11.080;2024-01-11T07:42:38;8.93;;;4.27;;
14330;SDS011;7249;49.376;11.080;2024-01-11T07:45:05;11.83;;;3.73;;
14330;SDS011;7249;49.376;11.080;2024-01-11T07:47:32;9.40;;;4.37;;
14330;SDS011;7249;49.376;11.080;2024-01-11T07:49:58;8.20;;;4.43;;
14330;SDS011;7249;49.376;11.080;2024-01-11T07:52:24;10.53;;;4.40;;
14330;SDS011;7249;49.376;11.080;2024-01-11T07:54:49;5.57;;;4.53;;
14330;SDS011;7249;49.376;11.080;2024-01-11T07:57:15;11.90;;;5.40;;
14330;SDS011;7249;49.376;11.080;2024-01-11T07:59:41;4.87;;;4.13;;
14330;SDS011;7249;49.376;11.080;2024-01-11T08:02:06;11.83;;;5.67;;
14330;SDS011;7249;49.376;11.080;2024-01-11T08:04:32;7.77;;;4.63;;
14330;SDS011;7249;49.376;11.080;2024-01-11T08:06:58;4.97;;;3.67;;
14330;SDS011;7249;49.376;11.080;2024-01-11T08:09:27;10.57;;;5.53;;
14330;SDS011;7249;49.376;11.080;2024-01-11T08:11:53;7.50;;;4.80;;
14330;SDS011;7249;49.376;11.080;2024-01-11T08:14:19;8.43;;;4.57;;
14330;SDS011;7249;49.376;11.080;2024-01-11T08:16:47;5.73;;;3.93;;
14330;SDS011;7249;49.376;11.080;2024-01-11T08:19:12;11.53;;;4.47;;
14330;SDS011;7249;49.376;11.080;2024-01-11T08:21:39;6.30;;;4.47;;
14330;SDS011;7249;49.376;11.080;2024-01-11T08:24:06;11.57;;;5.90;;
14330;SDS011;7249;49.376;11.080;2024-01-11T08:26:32;8.57;;;4.10;;
14330;SDS011;7249;49.376;11.080;2024-01-11T08:28:58;8.83;;;5.10;;
14330;SDS011;7249;49.376;11.080;2024-01-11T08:31:23;5.87;;;4.30;;
14330;SDS011;7249;49.376;11.080;2024-01-11T08:33:49;11.53;;;5.00;;
14330;SDS011;7249;49.376;11.080;2024-01-11T08:36:15;13.03;;;6.00;;
14330;SDS011;7249;49.376;11.080;2024-01-11T08:38:41;6.37;;;5.03;;
14330;SDS011;7249;49.376;11.080;2024-01-11T08:41:07;13.00;;;6.23;;
14330;SDS011;7249;49.376;11.080;2024-01-11T08:43:32;12.47;;;6.93;;
14330;SDS011;7249;49.376;11.080;2024-01-11T08:45:58;14.23;;;7.10;;
14330;SDS011;7249;49.376;11.080;2024-01-11T08:48:25;9.83;;;6.20;;
14330;SDS011;7249;49.376;11.080;2024-01-11T08:50:50;20.33;;;7.17;;
14330;SDS011;7249;49.376;11.080;2024-01-11T08:53:16;11.40;;;7.40;;
14330;SDS011;7249;49.376;11.080;2024-01-11T08:55:42;17.93;;;7.03;;
14330;SDS011;7249;49.376;11.080;2024-01-11T08:58:08;10.00;;;6.33;;
14330;SDS011;7249;49.376;11.080;2024-01-11T09:00:35;10.83;;;7.47;;
14330;SDS011;7249;49.376;11.080;2024-01-11T09:03:02;10.53;;;6.60;;
14330;SDS011;7249;49.376;11.080;2024-01-11T09:05:28;13.30;;;7.93;;
14330;SDS011;7249;49.376;11.080;2024-01-11T09:07:54;12.70;;;7.23;;
14330;SDS011;7249;49.376;11.080;2024-01-11T09:10:19;12.37;;;7.23;;
14330;SDS011;7249;49.376;11.080;2024-01-11T09:12:45;12.37;;;5.87;;
14330;SDS011;7249;49.376;11.080;2024-01-11T09:15:11;12.27;;;6.97;;
14330;SDS011;7249;49.376;11.080;2024-01-11T09:17:37;16.43;;;7.20;;
14330;SDS011;7249;49.376;11.080;2024-01-11T09:20:04;13.33;;;6.97;;
14330;SDS011;7249;49.376;11.080;2024-01-11T09:22:30;12.77;;;7.27;;
14330;SDS011;7249;49.376;11.080;2024-01-11T09:24:55;13.50;;;6.90;;
14330;SDS011;7249;49.376;11.080;2024-01-11T09:27:21;14.43;;;7.97;;
14330;SDS011;7249;49.376;11.080;2024-01-11T09:29:47;14.40;;;8.23;;
14330;SDS011;7249;49.376;11.080;2024-01-11T09:32:12;15.77;;;7.97;;
14330;SDS011;7249;49.376;11.080;2024-01-11T09:34:38;16.27;;;7.27;;
14330;SDS011;7249;49.376;11.080;2024-01-11T09:37:04;10.67;;;7.33;;
14330;SDS011;7249;49.376;11.080;2024-01-11T09:39:30;12.87;;;7.43;;
14330;SDS011;7249;49.376;11.080;2024-01-11T09:42:03;14.17;;;8.53;;
14330;SDS011;7249;49.376;11.080;2024-01-11T09:44:33;17.07;;;8.70;;
14330;SDS011;7249;49.376;11.080;2024-01-11T09:46:59;24.87;;;9.57;;
14330;SDS011;7249;49.376;11.080;2024-01-11T09:49:27;12.03;;;7.03;;
14330;SDS011;7249;49.376;11.080;2024-01-11T09:51:55;16.20;;;8.50;;
14330;SDS011;7249;49.376;11.080;2024-01-11T09:54:22;17.73;;;9.23;;
14330;SDS011;7249;49.376;11.080;2024-01-11T09:56:50;14.80;;;8.07;;
14330;SDS011;7249;49.376;11.080;2024-01-11T09:59:19;16.63;;;8.07;;
14330;SDS011;7249;49.376;11.080;2024-01-11T10:01:47;22.80;;;9.57;;
14330;SDS011;7249;49.376;11.080;2024-01-11T10:04:13;18.13;;;9.47;;
14330;SDS011;7249;49.376;11.080;2024-01-11T10:06:40;22.37;;;9.03;;
14330;SDS011;7249;49.376;11.080;2024-01-11T10:09:06;15.90;;;8.57;;
14330;SDS011;7249;49.376;11.080;2024-01-11T10:11:33;23.13;;;9.17;;
14330;SDS011;7249;49.376;11.080;2024-01-11T10:13:59;22.87;;;11.13;;
14330;SDS011;7249;49.376;11.080;2024-01-11T10:16:27;20.75;;;11.98;;
14330;SDS011;7249;49.376;11.080;2024-01-11T10:18:54;21.13;;;9.67;;
14330;SDS011;7249;49.376;11.080;2024-01-11T10:21:20;15.73;;;7.83;;
14330;SDS011;7249;49.376;11.080;2024-01-11T10:23:47;17.27;;;8.57;;
14330;SDS011;7249;49.376;11.080;2024-01-11T10:26:17;12.93;;;7.57;;
14330;SDS011;7249;49.376;11.080;2024-01-11T10:28:46;18.43;;;8.27;;
14330;SDS011;7249;49.376;11.080;2024-01-11T10:31:12;16.13;;;8.83;;
14330;SDS011;7249;49.376;11.080;2024-01-11T10:33:41;19.30;;;8.90;;
14330;SDS011;7249;49.376;11.080;2024-01-11T10:36:07;17.90;;;8.43;;
14330;SDS011;7249;49.376;11.080;2024-01-11T10:38:35;16.63;;;8.60;;
14330;SDS011;7249;49.376;11.080;2024-01-11T10:41:06;19.60;;;8.60;;
14330;SDS011;7249;49.376;11.080;2024-01-11T10:43:33;15.43;;;7.73;;
14330;SDS011;7249;49.376;11.080;2024-01-11T10:46:02;16.17;;;9.20;;
14330;SDS011;7249;49.376;11.080;2024-01-11T10:48:31;16.47;;;8.70;;
14330;SDS011;7249;49.376;11.080;2024-01-11T10:51:02;19.43;;;9.30;;
14330;SDS011;7249;49.376;11.080;2024-01-11T10:53:42;19.37;;;9.87;;
14330;SDS011;7249;49.376;11.080;2024-01-11T10:56:13;14.40;;;7.50;;
14330;SDS011;7249;49.376;11.080;2024-01-11T10:58:41;12.70;;;7.80;;
14330;SDS011;7249;49.376;11.080;2024-01-11T11:01:08;21.40;;;8.80;;
14330;SDS011;7249;49.376;11.080;2024-01-11T11:03:38;16.30;;;8.63;;
14330;SDS011;7249;49.376;11.080;2024-01-11T11:06:04;16.93;;;9.57;;
14330;SDS011;7249;49.376;11.080;2024-01-11T11:08:32;19.80;;;9.57;;
14330;SDS011;7249;49.376;11.080;2024-01-11T11:10:59;21.17;;;10.10;;
14330;SDS011;7249;49.376;11.080;2024-01-11T11:13:26;15.40;;;8.67;;
14330;SDS011;7249;49.376;11.080;2024-01-11T11:15:52;14.47;;;8.33;;
14330;SDS011;7249;49.376;11.080;2024-01-11T11:18:19;17.93;;;9.13;;
14330;SDS011;7249;49.376;11.080;2024-01-11T11:20:45;20.83;;;9.87;;
14330;SDS011;7249;49.376;11.080;2024-01-11T11:23:14;20.07;;;10.27;;
14330;SDS011;7249;49.376;11.080;2024-01-11T11:25:42;18.73;;;10.97;;
14330;SDS011;7249;49.376;11.080;2024-01-11T11:28:13;20.57;;;9.33;;
14330;SDS011;7249;49.376;11.080;2024-01-11T11:30:41;24.70;;;10.40;;
14330;SDS011;7249;49.376;11.080;2024-01-11T11:35:35;16.83;;;8.20;;
14330;SDS011;7249;49.376;11.080;2024-01-11T11:38:02;14.90;;;9.03;;
14330;SDS011;7249;49.376;11.080;2024-01-11T11:40:37;17.67;;;10.33;;
14330;SDS011;7249;49.376;11.080;2024-01-11T11:43:09;15.37;;;7.67;;
14330;SDS011;7249;49.376;11.080;2024-01-11T11:45:35;16.27;;;8.63;;
14330;SDS011;7249;49.376;11.080;2024-01-11T11:48:21;16.47;;;8.93;;
14330;SDS011;7249;49.376;11.080;2024-01-11T11:51:09;18.30;;;8.57;;
14330;SDS011;7249;49.376;11.080;2024-01-11T11:53:46;16.70;;;8.90;;
14330;SDS011;7249;49.376;11.080;2024-01-11T11:56:16;20.40;;;8.97;;
14330;SDS011;7249;49.376;11.080;2024-01-11T11:58:44;19.40;;;9.53;;
14330;SDS011;7249;49.376;11.080;2024-01-11T12:01:10;17.30;;;9.00;;
14330;SDS011;7249;49.376;11.080;2024-01-11T12:03:36;17.10;;;8.87;;
14330;SDS011;7249;49.376;11.080;2024-01-11T12:06:04;15.87;;;7.70;;
14330;SDS011;7249;49.376;11.080;2024-01-11T12:08:31;17.63;;;8.40;;
14330;SDS011;7249;49.376;11.080;2024-01-11T12:10:57;18.57;;;8.30;;
14330;SDS011;7249;49.376;11.080;2024-01-11T12:13:23;14.90;;;8.97;;
14330;SDS011;7249;49.376;11.080;2024-01-11T12:15:49;14.00;;;8.77;;
14330;SDS011;7249;49.376;11.080;2024-01-11T12:18:15;15.07;;;7.97;;
14330;SDS011;7249;49.376;11.080;2024-01-11T12:20:41;16.80;;;7.83;;
14330;SDS011;7249;49.376;11.080;2024-01-11T12:23:06;17.13;;;9.13;;
14330;SDS011;7249;49.376;11.080;2024-01-11T12:25:32;14.30;;;7.77;;
14330;SDS011;7249;49.376;11.080;2024-01-11T12:27:58;16.67;;;8.20;;
14330;SDS011;7249;49.376;11.080;2024-01-11T12:30:24;18.40;;;8.53;;
14330;SDS011;7249;49.376;11.080;2024-01-11T12:32:51;16.53;;;7.73;;
14330;SDS011;7249;49.376;11.080;2024-01-11T12:35:21;15.03;;;7.33;;
14330;SDS011;7249;49.376;11.080;2024-01-11T12:38:00;19.00;;;7.47;;
14330;SDS011;7249;49.376;11.080;2024-01-11T12:40:29;15.37;;;7.20;;
14330;SDS011;7249;49.376;11.080;2024-01-11T12:43:05;16.03;;;7.57;;
14330;SDS011;7249;49.376;11.080;2024-01-11T12:45:32;15.73;;;7.10;;
14330;SDS011;7249;49.376;11.080;2024-01-11T12:47:59;15.00;;;7.13;;
14330;SDS011;7249;49.376;11.080;2024-01-11T12:50:25;16.30;;;7.57;;
14330;SDS011;7249;49.376;11.080;2024-01-11T12:55:33;16.23;;;7.17;;
14330;SDS011;7249;49.376;11.080;2024-01-11T12:58:05;11.03;;;7.03;;
14330;SDS011;7249;49.376;11.080;2024-01-11T13:00:32;14.00;;;6.33;;
14330;SDS011;7249;49.376;11.080;2024-01-11T13:02:58;14.17;;;6.87;;
14330;SDS011;7249;49.376;11.080;2024-01-11T13:05:24;11.17;;;6.87;;
14330;SDS011;7249;49.376;11.080;2024-01-11T13:07:50;12.37;;;6.60;;
14330;SDS011;7249;49.376;11.080;2024-01-11T13:10:16;12.43;;;5.83;;
14330;SDS011;7249;49.376;11.080;2024-01-11T13:12:42;13.97;;;6.63;;
14330;SDS011;7249;49.376;11.080;2024-01-11T13:15:07;12.40;;;6.43;;
14330;SDS011;7249;49.376;11.080;2024-01-11T13:17:33;13.97;;;6.57;;
14330;SDS011;7249;49.376;11.080;2024-01-11T13:19:59;12.70;;;6.53;;
14330;SDS011;7249;49.376;11.080;2024-01-11T13:22:26;13.17;;;6.67;;
14330;SDS011;7249;49.376;11.080;2024-01-11T13:24:52;12.80;;;6.30;;
14330;SDS011;7249;49.376;11.080;2024-01-11T13:27:17;15.80;;;6.40;;
14330;SDS011;7249;49.376;11.080;2024-01-11T13:29:43;15.37;;;6.37;;
14330;SDS011;7249;49.376;11.080;2024-01-11T13:32:09;11.23;;;6.60;;
14330;SDS011;7249;49.376;11.080;2024-01-11T13:34:35;9.33;;;6.23;;
14330;SDS011;7249;49.376;11.080;2024-01-11T13:37:01;9.93;;;5.73;;
14330;SDS011;7249;49.376;11.080;2024-01-11T13:39:28;15.60;;;6.70;;
14330;SDS011;7249;49.376;11.080;2024-01-11T13:41:53;14.23;;;6.97;;
14330;SDS011;7249;49.376;11.080;2024-01-11T13:44:19;13.33;;;6.10;;
14330;SDS011;7249;49.376;11.080;2024-01-11T13:46:44;13.37;;;7.23;;
14330;SDS011;7249;49.376;11.080;2024-01-11T13:49:10;15.43;;;8.03;;
14330;SDS011;7249;49.376;11.080;2024-01-11T13:51:36;12.47;;;6.33;;
14330;SDS011;7249;49.376;11.080;2024-01-11T13:54:02;11.43;;;7.70;;
14330;SDS011;7249;49.376;11.080;2024-01-11T13:56:28;12.40;;;7.93;;
14330;SDS011;7249;49.376;11.080;2024-01-11T13:58:54;10.53;;;7.17;;
14330;SDS011;7249;49.376;11.080;2024-01-11T14:01:20;15.17;;;7.37;;
14330;SDS011;7249;49.376;11.080;2024-01-11T14:03:45;13.93;;;7.77;;
14330;SDS011;7249;49.376;11.080;2024-01-11T14:06:11;12.87;;;7.00;;
14330;SDS011;7249;49.376;11.080;2024-01-11T14:08:37;15.30;;;6.90;;
14330;SDS011;7249;49.376;11.080;2024-01-11T14:11:03;11.50;;;7.20;;
14330;SDS011;7249;49.376;11.080;2024-01-11T14:13:29;14.07;;;6.60;;
14330;SDS011;7249;49.376;11.080;2024-01-11T14:15:55;11.83;;;6.20;;
14330;SDS011;7249;49.376;11.080;2024-01-11T14:18:22;12.07;;;6.30;;
14330;SDS011;7249;49.376;11.080;2024-01-11T14:20:48;13.77;;;6.93;;
14330;SDS011;7249;49.376;11.080;2024-01-11T14:23:13;10.93;;;6.07;;
14330;SDS011;7249;49.376;11.080;2024-01-11T14:25:39;12.17;;;6.10;;
14330;SDS011;7249;49.376;11.080;2024-01-11T14:28:05;10.77;;;6.23;;
14330;SDS011;7249;49.376;11.080;2024-01-11T14:30:30;11.97;;;5.80;;
14330;SDS011;7249;49.376;11.080;2024-01-11T14:32:56;14.23;;;6.17;;
14330;SDS011;7249;49.376;11.080;2024-01-11T14:35:22;12.70;;;6.00;;
14330;SDS011;7249;49.376;11.080;2024-01-11T14:37:48;14.73;;;5.57;;
14330;SDS011;7249;49.376;11.080;2024-01-11T14:40:14;12.20;;;5.70;;
14330;SDS011;7249;49.376;11.080;2024-01-11T14:42:40;13.03;;;6.03;;
14330;SDS011;7249;49.376;11.080;2024-01-11T14:45:06;11.53;;;5.80;;
14330;SDS011;7249;49.376;11.080;2024-01-11T14:47:32;13.00;;;5.93;;
14330;SDS011;7249;49.376;11.080;2024-01-11T14:49:58;12.23;;;6.13;;
14330;SDS011;7249;49.376;11.080;2024-01-11T14:52:24;15.93;;;6.27;;
14330;SDS011;7249;49.376;11.080;2024-01-11T14:54:51;16.27;;;6.43;;
14330;SDS011;7249;49.376;11.080;2024-01-11T14:57:17;12.60;;;6.00;;
14330;SDS011;7249;49.376;11.080;2024-01-11T14:59:43;12.93;;;6.17;;
14330;SDS011;7249;49.376;11.080;2024-01-11T15:02:09;12.07;;;5.83;;
14330;SDS011;7249;49.376;11.080;2024-01-11T15:04:35;9.03;;;5.67;;
14330;SDS011;7249;49.376;11.080;2024-01-11T15:07:01;11.87;;;5.37;;
14330;SDS011;7249;49.376;11.080;2024-01-11T15:09:27;12.13;;;5.40;;
14330;SDS011;7249;49.376;11.080;2024-01-11T15:11:52;11.73;;;6.00;;
14330;SDS011;7249;49.376;11.080;2024-01-11T15:14:18;11.97;;;5.17;;
14330;SDS011;7249;49.376;11.080;2024-01-11T15:16:44;10.33;;;5.37;;
14330;SDS011;7249;49.376;11.080;2024-01-11T15:19:11;10.80;;;5.83;;
14330;SDS011;7249;49.376;11.080;2024-01-11T15:21:38;12.63;;;4.93;;
14330;SDS011;7249;49.376;11.080;2024-01-11T15:24:04;11.43;;;5.60;;
14330;SDS011;7249;49.376;11.080;2024-01-11T15:26:30;10.60;;;5.23;;
14330;SDS011;7249;49.376;11.080;2024-01-11T15:28:56;9.73;;;5.10;;
14330;SDS011;7249;49.376;11.080;2024-01-11T15:31:21;13.03;;;5.67;;
14330;SDS011;7249;49.376;11.080;2024-01-11T15:33:47;10.53;;;5.40;;
14330;SDS011;7249;49.376;11.080;2024-01-11T15:36:13;10.20;;;5.50;;
14330;SDS011;7249;49.376;11.080;2024-01-11T15:38:39;12.00;;;4.63;;
14330;SDS011;7249;49.376;11.080;2024-01-11T15:41:05;9.27;;;5.37;;
14330;SDS011;7249;49.376;11.080;2024-01-11T15:43:31;9.40;;;5.07;;
14330;SDS011;7249;49.376;11.080;2024-01-11T15:45:57;10.13;;;5.83;;
14330;SDS011;7249;49.376;11.080;2024-01-11T15:48:22;13.33;;;5.03;;
14330;SDS011;7249;49.376;11.080;2024-01-11T15:50:49;11.83;;;5.33;;
14330;SDS011;7249;49.376;11.080;2024-01-11T15:53:15;9.73;;;5.33;;
14330;SDS011;7249;49.376;11.080;2024-01-11T15:55:40;15.67;;;6.33;;
14330;SDS011;7249;49.376;11.080;2024-01-11T15:58:06;11.73;;;5.90;;
14330;SDS011;7249;49.376;11.080;2024-01-11T16:00:32;10.73;;;5.43;;
14330;SDS011;7249;49.376;11.080;2024-01-11T16:02:57;13.87;;;6.13;;
14330;SDS011;7249;49.376;11.080;2024-01-11T16:05:23;13.27;;;5.47;;
14330;SDS011;7249;49.376;11.080;2024-01-11T16:07:50;10.03;;;5.53;;
14330;SDS011;7249;49.376;11.080;2024-01-11T16:10:15;11.90;;;5.20;;
14330;SDS011;7249;49.376;11.080;2024-01-11T16:12:41;13.70;;;6.43;;
14330;SDS011;7249;49.376;11.080;2024-01-11T16:15:07;14.77;;;5.47;;
14330;SDS011;7249;49.376;11.080;2024-01-11T16:17:33;11.33;;;6.50;;
14330;SDS011;7249;49.376;11.080;2024-01-11T16:19:58;11.90;;;5.23;;
14330;SDS011;7249;49.376;11.080;2024-01-11T16:22:24;10.80;;;5.20;;
14330;SDS011;7249;49.376;11.080;2024-01-11T16:24:49;11.03;;;5.77;;
14330;SDS011;7249;49.376;11.080;2024-01-11T16:27:15;11.60;;;5.40;;
14330;SDS011;7249;49.376;11.080;2024-01-11T16:29:41;10.23;;;5.53;;
14330;SDS011;7249;49.376;11.080;2024-01-11T16:32:07;9.87;;;5.73;;
14330;SDS011;7249;49.376;11.080;2024-01-11T16:34:35;10.93;;;5.17;;
14330;SDS011;7249;49.376;11.080;2024-01-11T16:37:01;10.13;;;5.53;;
14330;SDS011;7249;49.376;11.080;2024-01-11T16:39:27;10.10;;;5.77;;
14330;SDS011;7249;49.376;11.080;2024-01-11T16:41:53;14.20;;;6.37;;
14330;SDS011;7249;49.376;11.080;2024-01-11T16:44:18;10.63;;;5.53;;
14330;SDS011;7249;49.376;11.080;2024-01-11T16:46:44;9.23;;;5.57;;
14330;SDS011;7249;49.376;11.080;2024-01-11T16:49:10;13.27;;;6.10;;
14330;SDS011;7249;49.376;11.080;2024-01-11T16:51:42;12.47;;;5.47;;
14330;SDS011;7249;49.376;11.080;2024-01-11T16:54:08;13.83;;;6.60;;
14330;SDS011;7249;49.376;11.080;2024-01-11T16:56:34;11.90;;;5.87;;
14330;SDS011;7249;49.376;11.080;2024-01-11T16:59:00;12.97;;;6.23;;
14330;SDS011;7249;49.376;11.080;2024-01-11T17:01:25;9.93;;;5.70;;
14330;SDS011;7249;49.376;11.080;2024-01-11T17:03:52;15.67;;;6.33;;
14330;SDS011;7249;49.376;11.080;2024-01-11T17:06:18;11.53;;;6.63;;
14330;SDS011;7249;49.376;11.080;2024-01-11T17:08:44;11.77;;;5.60;;
14330;SDS011;7249;49.376;11.080;2024-01-11T17:11:10;16.43;;;6.20;;
14330;SDS011;7249;49.376;11.080;2024-01-11T17:13:36;16.07;;;6.73;;
14330;SDS011;7249;49.376;11.080;2024-01-11T17:16:02;11.53;;;5.33;;
14330;SDS011;7249;49.376;11.080;2024-01-11T17:18:30;9.93;;;5.47;;
14330;SDS011;7249;49.376;11.080;2024-01-11T17:20:57;10.10;;;5.60;;
14330;SDS011;7249;49.376;11.080;2024-01-11T17:23:22;12.30;;;6.50;;
14330;SDS011;7249;49.376;11.080;2024-01-11T17:25:48;11.57;;;4.97;;
14330;SDS011;7249;49.376;11.080;2024-01-11T17:28:13;15.83;;;6.43;;
14330;SDS011;7249;49.376;11.080;2024-01-11T17:30:39;11.00;;;6.40;;
14330;SDS011;7249;49.376;11.080;2024-01-11T17:33:05;9.73;;;4.77;;
14330;SDS011;7249;49.376;11.080;2024-01-11T17:35:30;10.57;;;5.63;;
14330;SDS011;7249;49.376;11.080;2024-01-11T17:37:56;9.93;;;5.30;;
14330;SDS011;7249;49.376;11.080;2024-01-11T17:40:21;14.50;;;6.67;;
14330;SDS011;7249;49.376;11.080;2024-01-11T17:42:47;11.27;;;5.40;;
14330;SDS011;7249;49.376;11.080;2024-01-11T17:45:12;14.33;;;6.50;;
14330;SDS011;7249;49.376;11.080;2024-01-11T17:47:38;11.50;;;5.90;;
14330;SDS011;7249;49.376;11.080;2024-01-11T17:50:04;11.37;;;6.27;;
14330;SDS011;7249;49.376;11.080;2024-01-11T17:52:30;12.00;;;6.10;;
14330;SDS011;7249;49.376;11.080;2024-01-11T17:54:56;14.67;;;7.57;;
14330;SDS011;7249;49.376;11.080;2024-01-11T17:57:21;11.17;;;6.47;;
14330;SDS011;7249;49.376;11.080;2024-01-11T17:59:47;13.23;;;6.23;;
14330;SDS011;7249;49.376;11.080;2024-01-11T18:02:13;10.40;;;6.57;;
14330;SDS011;7249;49.376;11.080;2024-01-11T18:04:39;10.60;;;6.87;;
14330;SDS011;7249;49.376;11.080;2024-01-11T18:07:06;14.60;;;7.57;;
14330;SDS011;7249;49.376;11.080;2024-01-11T18:09:35;12.13;;;6.57;;
14330;SDS011;7249;49.376;11.080;2024-01-11T18:12:01;14.03;;;7.70;;
14330;SDS011;7249;49.376;11.080;2024-01-11T18:14:27;17.17;;;7.57;;
14330;SDS011;7249;49.376;11.080;2024-01-11T18:16:52;14.13;;;7.10;;
14330;SDS011;7249;49.376;11.080;2024-01-11T18:19:18;16.70;;;5.93;;
14330;SDS011;7249;49.376;11.080;2024-01-11T18:21:44;12.13;;;5.63;;
14330;SDS011;7249;49.376;11.080;2024-01-11T18:24:09;16.80;;;7.60;;
14330;SDS011;7249;49.376;11.080;2024-01-11T18:26:36;13.63;;;6.50;;
14330;SDS011;7249;49.376;11.080;2024-01-11T18:29:02;14.50;;;6.37;;
14330;SDS011;7249;49.376;11.080;2024-01-11T18:31:28;11.73;;;6.37;;
14330;SDS011;7249;49.376;11.080;2024-01-11T18:33:54;11.07;;;5.87;;
14330;SDS011;7249;49.376;11.080;2024-01-11T18:36:20;13.00;;;6.53;;
14330;SDS011;7249;49.376;11.080;2024-01-11T18:38:46;15.57;;;6.77;;
14330;SDS011;7249;49.376;11.080;2024-01-11T18:41:12;11.63;;;7.23;;
14330;SDS011;7249;49.376;11.080;2024-01-11T18:43:37;13.97;;;6.47;;
14330;SDS011;7249;49.376;11.080;2024-01-11T18:46:03;7.70;;;5.00;;
14330;SDS011;7249;49.376;11.080;2024-01-11T18:48:29;10.70;;;5.90;;
14330;SDS011;7249;49.376;11.080;2024-01-11T18:50:56;12.10;;;5.50;;
14330;SDS011;7249;49.376;11.080;2024-01-11T18:53:22;10.97;;;5.90;;
14330;SDS011;7249;49.376;11.080;2024-01-11T18:55:48;12.93;;;6.50;;
14330;SDS011;7249;49.376;11.080;2024-01-11T18:58:14;15.33;;;6.90;;
14330;SDS011;7249;49.376;11.080;2024-01-11T19:00:42;13.00;;;7.20;;
14330;SDS011;7249;49.376;11.080;2024-01-11T19:03:09;12.43;;;7.03;;
14330;SDS011;7249;49.376;11.080;2024-01-11T19:05:36;12.10;;;6.43;;
14330;SDS011;7249;49.376;11.080;2024-01-11T19:08:04;14.17;;;6.70;;
14330;SDS011;7249;49.376;11.080;2024-01-11T19:10:30;14.37;;;7.73;;
14330;SDS011;7249;49.376;11.080;2024-01-11T19:12:56;14.27;;;7.87;;
14330;SDS011;7249;49.376;11.080;2024-01-11T19:15:22;18.30;;;5.83;;
14330;SDS011;7249;49.376;11.080;2024-01-11T19:17:47;13.37;;;5.63;;
14330;SDS011;7249;49.376;11.080;2024-01-11T19:20:13;10.40;;;5.27;;
14330;SDS011;7249;49.376;11.080;2024-01-11T19:22:39;9.03;;;5.67;;
14330;SDS011;7249;49.376;11.080;2024-01-11T19:25:05;13.10;;;6.10;;
14330;SDS011;7249;49.376;11.080;2024-01-11T19:27:31;9.13;;;5.43;;
14330;SDS011;7249;49.376;11.080;2024-01-11T19:29:57;9.83;;;5.47;;
14330;SDS011;7249;49.376;11.080;2024-01-11T19:32:28;8.03;;;4.77;;
14330;SDS011;7249;49.376;11.080;2024-01-11T19:34:55;9.03;;;5.97;;
14330;SDS011;7249;49.376;11.080;2024-01-11T19:37:20;12.27;;;6.03;;
14330;SDS011;7249;49.376;11.080;2024-01-11T19:39:46;11.53;;;4.87;;
14330;SDS011;7249;49.376;11.080;2024-01-11T19:42:15;16.27;;;6.43;;